Eucla Airport


Codes: YECL/EUC
Name: Eucla Airport
City:
Country: Australia
Elevation: 0 ft.

Photos at Eucla Airport


   Photos courtesy of SpottingLog. You can add your own sightings and photos by signing up for a free trial today.



No photos found.

Weather at Eucla Airport


Time (UTC)DescriptionTempratureWindCloud coverageVisibilityPressureHumidity
13-Jun-2024 03:00Overcast Clouds21°C13 mph, W100%10000m1015hPa50%
13-Jun-2024 06:00Overcast Clouds20°C20 mph, SW92%10000m1015hPa54%
13-Jun-2024 09:00Scattered Clouds17°C20 mph, SW34%10000m1016hPa74%
13-Jun-2024 12:00Clear Sky14°C13 mph, W0%10000m1019hPa84%
13-Jun-2024 15:00Clear Sky13°C13 mph, W0%10000m1020hPa88%
13-Jun-2024 18:00Clear Sky13°C13 mph, W0%10000m1019hPa89%
13-Jun-2024 21:00Clear Sky12°C13 mph, W0%10000m1020hPa88%
14-Jun-2024 00:00Clear Sky14°C18 mph, W0%10000m1021hPa73%
14-Jun-2024 03:00Scattered Clouds17°C13 mph, SW34%10000m1021hPa66%
14-Jun-2024 06:00Scattered Clouds17°C16 mph, S25%10000m1020hPa67%
14-Jun-2024 09:00Clear Sky15°C9 mph, S4%10000m1022hPa82%
14-Jun-2024 12:00Few Clouds14°C7 mph, S21%10000m1023hPa83%
14-Jun-2024 15:00Overcast Clouds14°C7 mph, SE85%10000m1023hPa78%
14-Jun-2024 18:00Broken Clouds14°C4 mph, SE71%10000m1023hPa75%
14-Jun-2024 21:00Overcast Clouds14°C7 mph, E100%10000m1023hPa73%
15-Jun-2024 00:00Broken Clouds15°C4 mph, E71%10000m1025hPa65%
15-Jun-2024 03:00Broken Clouds17°C4 mph, E57%10000m1024hPa57%
15-Jun-2024 06:00Broken Clouds17°C9 mph, SE64%10000m1022hPa57%
15-Jun-2024 09:00Broken Clouds15°C11 mph, E82%10000m1022hPa70%
15-Jun-2024 12:00Broken Clouds14°C11 mph, E57%10000m1023hPa78%
15-Jun-2024 15:00Broken Clouds14°C9 mph, NE56%10000m1023hPa72%
15-Jun-2024 18:00Broken Clouds13°C11 mph, NE66%10000m1022hPa70%
15-Jun-2024 21:00Overcast Clouds14°C11 mph, NE98%10000m1022hPa67%
16-Jun-2024 00:00Overcast Clouds15°C11 mph, NE99%10000m1023hPa62%
16-Jun-2024 03:00Scattered Clouds20°C13 mph, NE47%10000m1022hPa46%
16-Jun-2024 06:00Broken Clouds21°C9 mph, NE63%10000m1020hPa43%
16-Jun-2024 09:00Overcast Clouds19°C13 mph, E99%10000m1021hPa57%
16-Jun-2024 12:00Overcast Clouds18°C13 mph, NE99%10000m1021hPa55%
16-Jun-2024 15:00Overcast Clouds17°C16 mph, NE97%10000m1020hPa53%
16-Jun-2024 18:00Overcast Clouds17°C13 mph, NE98%10000m1019hPa54%
16-Jun-2024 21:00Overcast Clouds18°C16 mph, N100%10000m1019hPa48%
17-Jun-2024 00:00Overcast Clouds19°C13 mph, NW100%10000m1019hPa46%
17-Jun-2024 03:00Overcast Clouds19°C13 mph, NW100%10000m1019hPa50%
17-Jun-2024 06:00Overcast Clouds20°C9 mph, N100%10000m1017hPa49%
17-Jun-2024 09:00Overcast Clouds19°C16 mph, N100%10000m1018hPa54%
17-Jun-2024 12:00Light Rain17°C11 mph, NW100%10000m1019hPa73%
17-Jun-2024 15:00Light Rain16°C9 mph, NW100%9260m1018hPa86%
17-Jun-2024 18:00Moderate Rain15°C7 mph, W100%10000m1018hPa92%
17-Jun-2024 21:00Light Rain15°C9 mph, SW100%10000m1018hPa92%
18-Jun-2024 00:00Light Rain16°C11 mph, SW79%10000m1020hPa85%